Gustavus, Alaska
Current Conditions -  °F | °C
As of 1:03 AM on Saturday 22 Nov 2014 (Local Time) from PAGS Reporting Station
Overcast Overcast  
Wind Chill: 39°   Ceiling: 2800
Heat Index: 39°   Visibility: 10mi
Dew Point: 37°   Wind: 0mph
Humidity: 93%   Direction: NA
Pressure: 29.23"   Gusts: NA
Location:  58.41°N, 135.74°W
Report Text: PAGS 221003Z AUTO 00000KT 10SM FEW016 BKN028 OVC034 04/03 A2923 RMK VIA PHONE
Loading
Personal Weather Stations






























Interactive Weather Map New forecast layout! Learn more

10-Day Weather Forecast

Advertisements
Track Severe Weather on mobile